sensor_id;sensor_type;location;lat;lon;timestamp;temperature;humidity
32506;DHT22;18955;51.224;8.482;2022-12-29T00:02:07;5.70;86.30
32506;DHT22;18955;51.224;8.482;2022-12-29T00:04:34;5.70;86.20
32506;DHT22;18955;51.224;8.482;2022-12-29T00:07:01;5.70;86.20
32506;DHT22;18955;51.224;8.482;2022-12-29T00:09:30;5.80;86.30
32506;DHT22;18955;51.224;8.482;2022-12-29T00:11:57;5.70;86.30
32506;DHT22;18955;51.224;8.482;2022-12-29T00:14:24;5.70;86.70
32506;DHT22;18955;51.224;8.482;2022-12-29T00:17:09;5.80;86.50
32506;DHT22;18955;51.224;8.482;2022-12-29T00:19:35;5.80;86.60
32506;DHT22;18955;51.224;8.482;2022-12-29T00:22:20;5.80;86.60
32506;DHT22;18955;51.224;8.482;2022-12-29T00:25:08;5.80;86.50
32506;DHT22;18955;51.224;8.482;2022-12-29T00:27:54;5.80;87.20
32506;DHT22;18955;51.224;8.482;2022-12-29T00:30:40;5.80;87.10
32506;DHT22;18955;51.224;8.482;2022-12-29T00:33:28;5.80;87.20
32506;DHT22;18955;51.224;8.482;2022-12-29T00:36:20;5.90;87.10
32506;DHT22;18955;51.224;8.482;2022-12-29T00:39:12;5.80;86.90
32506;DHT22;18955;51.224;8.482;2022-12-29T00:42:03;5.80;86.80
32506;DHT22;18955;51.224;8.482;2022-12-29T00:45:04;5.80;86.70
32506;DHT22;18955;51.224;8.482;2022-12-29T00:47:31;5.90;86.90
32506;DHT22;18955;51.224;8.482;2022-12-29T00:49:57;5.80;86.60
32506;DHT22;18955;51.224;8.482;2022-12-29T00:52:23;5.90;86.70
32506;DHT22;18955;51.224;8.482;2022-12-29T00:54:49;5.90;86.80
32506;DHT22;18955;51.224;8.482;2022-12-29T00:57:15;5.90;86.70
32506;DHT22;18955;51.224;8.482;2022-12-29T00:59:42;5.90;86.80
32506;DHT22;18955;51.224;8.482;2022-12-29T01:02:09;5.90;86.70
32506;DHT22;18955;51.224;8.482;2022-12-29T01:04:36;5.90;86.90
32506;DHT22;18955;51.224;8.482;2022-12-29T01:07:02;5.90;86.70
32506;DHT22;18955;51.224;8.482;2022-12-29T01:09:28;5.90;86.70
32506;DHT22;18955;51.224;8.482;2022-12-29T01:12:13;5.90;87.20
32506;DHT22;18955;51.224;8.482;2022-12-29T01:14:42;5.90;87.30
32506;DHT22;18955;51.224;8.482;2022-12-29T01:17:08;5.90;86.90
32506;DHT22;18955;51.224;8.482;2022-12-29T01:19:34;5.90;87.10
32506;DHT22;18955;51.224;8.482;2022-12-29T01:22:01;6.00;87.30
32506;DHT22;18955;51.224;8.482;2022-12-29T01:24:27;6.00;87.20
32506;DHT22;18955;51.224;8.482;2022-12-29T01:26:54;6.00;87.10
32506;DHT22;18955;51.224;8.482;2022-12-29T01:29:20;6.00;87.10
32506;DHT22;18955;51.224;8.482;2022-12-29T01:31:46;6.00;86.90
32506;DHT22;18955;51.224;8.482;2022-12-29T01:34:13;6.00;86.80
32506;DHT22;18955;51.224;8.482;2022-12-29T01:36:39;6.00;87.30
32506;DHT22;18955;51.224;8.482;2022-12-29T01:39:05;6.00;86.70
32506;DHT22;18955;51.224;8.482;2022-12-29T01:41:31;6.00;86.60
32506;DHT22;18955;51.224;8.482;2022-12-29T01:43:59;6.00;86.90
32506;DHT22;18955;51.224;8.482;2022-12-29T01:51:48;6.00;87.50
32506;DHT22;18955;51.224;8.482;2022-12-29T01:54:28;6.10;87.20
32506;DHT22;18955;51.224;8.482;2022-12-29T01:57:01;6.00;87.10
32506;DHT22;18955;51.224;8.482;2022-12-29T01:59:36;6.00;87.20
32506;DHT22;18955;51.224;8.482;2022-12-29T02:02:03;6.10;87.30
32506;DHT22;18955;51.224;8.482;2022-12-29T02:04:29;6.00;87.00
32506;DHT22;18955;51.224;8.482;2022-12-29T02:06:59;6.10;87.00
32506;DHT22;18955;51.224;8.482;2022-12-29T02:09:26;6.10;86.60
32506;DHT22;18955;51.224;8.482;2022-12-29T02:11:53;6.10;86.60
32506;DHT22;18955;51.224;8.482;2022-12-29T02:14:19;6.10;86.60
32506;DHT22;18955;51.224;8.482;2022-12-29T02:20:02;6.10;86.80
32506;DHT22;18955;51.224;8.482;2022-12-29T02:25:58;6.20;87.30
32506;DHT22;18955;51.224;8.482;2022-12-29T02:36:32;6.20;87.80
32506;DHT22;18955;51.224;8.482;2022-12-29T02:47:05;6.20;87.50
32506;DHT22;18955;51.224;8.482;2022-12-29T02:49:43;6.20;87.20
32506;DHT22;18955;51.224;8.482;2022-12-29T02:52:18;6.20;87.20
32506;DHT22;18955;51.224;8.482;2022-12-29T02:54:48;6.20;87.20
32506;DHT22;18955;51.224;8.482;2022-12-29T03:00:33;6.20;86.90
32506;DHT22;18955;51.224;8.482;2022-12-29T03:11:11;6.30;87.00
32506;DHT22;18955;51.224;8.482;2022-12-29T03:14:12;6.30;86.90
32506;DHT22;18955;51.224;8.482;2022-12-29T03:17:10;6.30;86.80
32506;DHT22;18955;51.224;8.482;2022-12-29T03:19:47;6.30;86.80
32506;DHT22;18955;51.224;8.482;2022-12-29T03:22:22;6.30;86.80
32506;DHT22;18955;51.224;8.482;2022-12-29T03:25:10;6.30;86.90
32506;DHT22;18955;51.224;8.482;2022-12-29T03:27:50;6.30;86.80
32506;DHT22;18955;51.224;8.482;2022-12-29T03:30:19;6.30;86.80
32506;DHT22;18955;51.224;8.482;2022-12-29T03:32:51;6.30;86.80
32506;DHT22;18955;51.224;8.482;2022-12-29T03:35:22;6.30;86.90
32506;DHT22;18955;51.224;8.482;2022-12-29T03:40:44;6.30;86.70
32506;DHT22;18955;51.224;8.482;2022-12-29T03:43:12;6.30;86.90
32506;DHT22;18955;51.224;8.482;2022-12-29T03:45:39;6.30;86.80
32506;DHT22;18955;51.224;8.482;2022-12-29T03:48:06;6.30;86.60
32506;DHT22;18955;51.224;8.482;2022-12-29T03:50:32;6.30;86.60
32506;DHT22;18955;51.224;8.482;2022-12-29T03:52:58;6.30;86.50
32506;DHT22;18955;51.224;8.482;2022-12-29T03:55:26;6.40;86.60
32506;DHT22;18955;51.224;8.482;2022-12-29T03:57:53;6.40;86.60
32506;DHT22;18955;51.224;8.482;2022-12-29T04:00:30;6.40;86.70
32506;DHT22;18955;51.224;8.482;2022-12-29T04:02:56;6.40;86.70
32506;DHT22;18955;51.224;8.482;2022-12-29T04:05:23;6.40;86.80
32506;DHT22;18955;51.224;8.482;2022-12-29T04:07:51;6.40;86.90
32506;DHT22;18955;51.224;8.482;2022-12-29T04:10:18;6.40;86.80
32506;DHT22;18955;51.224;8.482;2022-12-29T04:12:46;6.40;86.90
32506;DHT22;18955;51.224;8.482;2022-12-29T04:15:13;6.40;86.80
32506;DHT22;18955;51.224;8.482;2022-12-29T04:17:39;6.40;87.10
32506;DHT22;18955;51.224;8.482;2022-12-29T04:20:06;6.40;87.00
32506;DHT22;18955;51.224;8.482;2022-12-29T04:23:01;6.40;87.20
32506;DHT22;18955;51.224;8.482;2022-12-29T04:25:28;6.40;87.30
32506;DHT22;18955;51.224;8.482;2022-12-29T04:27:55;6.40;87.60
32506;DHT22;18955;51.224;8.482;2022-12-29T04:30:39;6.40;87.70
32506;DHT22;18955;51.224;8.482;2022-12-29T04:33:14;6.40;87.30
32506;DHT22;18955;51.224;8.482;2022-12-29T04:35:42;6.40;87.40
32506;DHT22;18955;51.224;8.482;2022-12-29T04:38:09;6.40;87.40
32506;DHT22;18955;51.224;8.482;2022-12-29T04:40:38;6.50;87.20
32506;DHT22;18955;51.224;8.482;2022-12-29T04:43:06;6.50;87.30
32506;DHT22;18955;51.224;8.482;2022-12-29T04:45:39;6.50;87.30
32506;DHT22;18955;51.224;8.482;2022-12-29T04:48:20;6.50;87.20
32506;DHT22;18955;51.224;8.482;2022-12-29T04:51:02;6.50;87.20
32506;DHT22;18955;51.224;8.482;2022-12-29T04:53:35;6.50;87.00
32506;DHT22;18955;51.224;8.482;2022-12-29T04:56:01;6.50;87.10
32506;DHT22;18955;51.224;8.482;2022-12-29T04:58:27;6.50;87.60
32506;DHT22;18955;51.224;8.482;2022-12-29T05:00:54;6.50;87.40
32506;DHT22;18955;51.224;8.482;2022-12-29T05:03:23;6.50;87.30
32506;DHT22;18955;51.224;8.482;2022-12-29T05:05:53;6.50;87.20
32506;DHT22;18955;51.224;8.482;2022-12-29T05:08:20;6.50;87.40
32506;DHT22;18955;51.224;8.482;2022-12-29T05:10:46;6.50;87.50
32506;DHT22;18955;51.224;8.482;2022-12-29T05:13:13;6.50;87.40
32506;DHT22;18955;51.224;8.482;2022-12-29T05:15:39;6.50;87.20
32506;DHT22;18955;51.224;8.482;2022-12-29T05:18:06;6.50;87.20
32506;DHT22;18955;51.224;8.482;2022-12-29T05:20:32;6.50;87.30
32506;DHT22;18955;51.224;8.482;2022-12-29T05:22:59;6.50;87.20
32506;DHT22;18955;51.224;8.482;2022-12-29T05:25:25;6.50;87.10
32506;DHT22;18955;51.224;8.482;2022-12-29T05:28:10;6.50;87.00
32506;DHT22;18955;51.224;8.482;2022-12-29T05:30:59;6.50;87.00
32506;DHT22;18955;51.224;8.482;2022-12-29T05:33:25;6.60;87.40
32506;DHT22;18955;51.224;8.482;2022-12-29T05:35:51;6.60;87.10
32506;DHT22;18955;51.224;8.482;2022-12-29T05:38:19;6.60;87.20
32506;DHT22;18955;51.224;8.482;2022-12-29T05:40:45;6.50;87.20
32506;DHT22;18955;51.224;8.482;2022-12-29T05:43:23;6.60;87.50
32506;DHT22;18955;51.224;8.482;2022-12-29T05:46:09;6.60;87.30
32506;DHT22;18955;51.224;8.482;2022-12-29T05:48:45;6.60;87.70
32506;DHT22;18955;51.224;8.482;2022-12-29T05:51:25;6.60;87.30
32506;DHT22;18955;51.224;8.482;2022-12-29T05:53:53;6.60;87.30
32506;DHT22;18955;51.224;8.482;2022-12-29T05:56:20;6.60;87.30
32506;DHT22;18955;51.224;8.482;2022-12-29T05:58:53;6.60;87.80
32506;DHT22;18955;51.224;8.482;2022-12-29T06:01:20;6.60;87.20
32506;DHT22;18955;51.224;8.482;2022-12-29T06:03:47;6.60;87.10
32506;DHT22;18955;51.224;8.482;2022-12-29T06:06:13;6.60;87.10
32506;DHT22;18955;51.224;8.482;2022-12-29T06:08:40;6.60;87.10
32506;DHT22;18955;51.224;8.482;2022-12-29T06:11:06;6.60;87.70
32506;DHT22;18955;51.224;8.482;2022-12-29T06:13:33;6.60;87.30
32506;DHT22;18955;51.224;8.482;2022-12-29T06:16:00;6.60;87.10
32506;DHT22;18955;51.224;8.482;2022-12-29T06:18:27;6.60;87.00
32506;DHT22;18955;51.224;8.482;2022-12-29T06:20:53;6.60;87.00
32506;DHT22;18955;51.224;8.482;2022-12-29T06:23:19;6.60;87.10
32506;DHT22;18955;51.224;8.482;2022-12-29T06:25:49;6.60;87.10
32506;DHT22;18955;51.224;8.482;2022-12-29T06:28:16;6.70;87.80
32506;DHT22;18955;51.224;8.482;2022-12-29T06:30:44;6.70;87.30
32506;DHT22;18955;51.224;8.482;2022-12-29T06:33:12;6.70;87.10
32506;DHT22;18955;51.224;8.482;2022-12-29T06:35:38;6.70;87.20
32506;DHT22;18955;51.224;8.482;2022-12-29T06:38:04;6.70;87.10
32506;DHT22;18955;51.224;8.482;2022-12-29T06:40:31;6.70;87.10
32506;DHT22;18955;51.224;8.482;2022-12-29T06:43:00;6.70;87.10
32506;DHT22;18955;51.224;8.482;2022-12-29T06:45:53;6.70;87.10
32506;DHT22;18955;51.224;8.482;2022-12-29T06:48:19;6.70;87.30
32506;DHT22;18955;51.224;8.482;2022-12-29T06:50:45;6.70;87.30
32506;DHT22;18955;51.224;8.482;2022-12-29T06:53:11;6.70;87.20
32506;DHT22;18955;51.224;8.482;2022-12-29T06:55:37;6.70;87.30
32506;DHT22;18955;51.224;8.482;2022-12-29T06:58:04;6.70;87.20
32506;DHT22;18955;51.224;8.482;2022-12-29T07:00:30;6.70;87.10
32506;DHT22;18955;51.224;8.482;2022-12-29T07:02:56;6.70;87.00
32506;DHT22;18955;51.224;8.482;2022-12-29T07:05:24;6.70;87.10
32506;DHT22;18955;51.224;8.482;2022-12-29T07:07:54;6.70;87.00
32506;DHT22;18955;51.224;8.482;2022-12-29T07:10:21;6.70;87.10
32506;DHT22;18955;51.224;8.482;2022-12-29T07:12:47;6.70;87.30
32506;DHT22;18955;51.224;8.482;2022-12-29T07:15:13;6.70;87.20
32506;DHT22;18955;51.224;8.482;2022-12-29T07:17:40;6.70;87.80
32506;DHT22;18955;51.224;8.482;2022-12-29T07:20:06;6.70;87.30
32506;DHT22;18955;51.224;8.482;2022-12-29T07:22:33;6.70;87.30
32506;DHT22;18955;51.224;8.482;2022-12-29T07:24:59;6.70;87.30
32506;DHT22;18955;51.224;8.482;2022-12-29T07:27:25;6.80;87.30
32506;DHT22;18955;51.224;8.482;2022-12-29T07:29:52;6.70;87.30
32506;DHT22;18955;51.224;8.482;2022-12-29T07:32:18;6.70;87.30
32506;DHT22;18955;51.224;8.482;2022-12-29T07:34:44;6.80;87.30
32506;DHT22;18955;51.224;8.482;2022-12-29T07:37:15;6.80;87.30
32506;DHT22;18955;51.224;8.482;2022-12-29T07:39:41;6.70;87.30
32506;DHT22;18955;51.224;8.482;2022-12-29T07:42:07;6.70;87.20
32506;DHT22;18955;51.224;8.482;2022-12-29T07:44:41;6.70;87.10
32506;DHT22;18955;51.224;8.482;2022-12-29T07:47:22;6.80;87.30
32506;DHT22;18955;51.224;8.482;2022-12-29T07:49:48;6.80;86.90
32506;DHT22;18955;51.224;8.482;2022-12-29T07:52:14;6.80;87.00
32506;DHT22;18955;51.224;8.482;2022-12-29T07:54:40;6.80;87.30
32506;DHT22;18955;51.224;8.482;2022-12-29T07:57:06;6.80;87.30
32506;DHT22;18955;51.224;8.482;2022-12-29T07:59:33;6.80;87.30
32506;DHT22;18955;51.224;8.482;2022-12-29T08:01:59;6.80;87.30
32506;DHT22;18955;51.224;8.482;2022-12-29T08:04:25;6.80;87.30
32506;DHT22;18955;51.224;8.482;2022-12-29T08:06:51;6.80;87.20
32506;DHT22;18955;51.224;8.482;2022-12-29T08:09:18;6.80;87.20
32506;DHT22;18955;51.224;8.482;2022-12-29T08:11:44;6.80;87.40
32506;DHT22;18955;51.224;8.482;2022-12-29T08:14:11;6.80;87.20
32506;DHT22;18955;51.224;8.482;2022-12-29T08:16:37;6.80;87.30
32506;DHT22;18955;51.224;8.482;2022-12-29T08:19:03;6.80;87.10
32506;DHT22;18955;51.224;8.482;2022-12-29T08:21:31;6.80;87.60
32506;DHT22;18955;51.224;8.482;2022-12-29T08:23:57;6.80;87.50
32506;DHT22;18955;51.224;8.482;2022-12-29T08:26:24;6.80;87.60
32506;DHT22;18955;51.224;8.482;2022-12-29T08:28:54;6.80;87.50
32506;DHT22;18955;51.224;8.482;2022-12-29T08:31:22;6.80;87.50
32506;DHT22;18955;51.224;8.482;2022-12-29T08:33:48;6.80;87.10
32506;DHT22;18955;51.224;8.482;2022-12-29T08:36:15;6.80;87.00
32506;DHT22;18955;51.224;8.482;2022-12-29T08:38:41;6.80;87.10
32506;DHT22;18955;51.224;8.482;2022-12-29T08:41:07;6.80;87.00
32506;DHT22;18955;51.224;8.482;2022-12-29T08:43:34;6.80;87.20
32506;DHT22;18955;51.224;8.482;2022-12-29T08:46:00;6.80;87.10
32506;DHT22;18955;51.224;8.482;2022-12-29T08:48:26;6.80;87.00
32506;DHT22;18955;51.224;8.482;2022-12-29T08:50:53;6.80;87.10
32506;DHT22;18955;51.224;8.482;2022-12-29T08:53:20;6.80;87.20
32506;DHT22;18955;51.224;8.482;2022-12-29T08:55:46;6.80;87.20
32506;DHT22;18955;51.224;8.482;2022-12-29T08:58:14;6.80;87.20
32506;DHT22;18955;51.224;8.482;2022-12-29T09:00:42;6.80;87.30
32506;DHT22;18955;51.224;8.482;2022-12-29T09:03:09;6.80;87.30
32506;DHT22;18955;51.224;8.482;2022-12-29T09:05:35;6.80;87.10
32506;DHT22;18955;51.224;8.482;2022-12-29T09:08:01;6.80;87.20
32506;DHT22;18955;51.224;8.482;2022-12-29T09:10:28;6.80;87.20
32506;DHT22;18955;51.224;8.482;2022-12-29T09:12:54;6.80;87.20
32506;DHT22;18955;51.224;8.482;2022-12-29T09:15:20;6.80;87.10
32506;DHT22;18955;51.224;8.482;2022-12-29T09:17:46;6.80;87.20
32506;DHT22;18955;51.224;8.482;2022-12-29T09:20:17;6.80;87.00
32506;DHT22;18955;51.224;8.482;2022-12-29T09:22:44;6.80;86.80
32506;DHT22;18955;51.224;8.482;2022-12-29T09:25:11;6.80;86.90
32506;DHT22;18955;51.224;8.482;2022-12-29T09:27:37;6.80;86.90
32506;DHT22;18955;51.224;8.482;2022-12-29T09:30:06;6.80;87.00
32506;DHT22;18955;51.224;8.482;2022-12-29T09:32:33;6.80;86.80
32506;DHT22;18955;51.224;8.482;2022-12-29T09:35:00;6.80;86.80
32506;DHT22;18955;51.224;8.482;2022-12-29T09:37:26;6.80;86.80
32506;DHT22;18955;51.224;8.482;2022-12-29T09:39:52;6.80;86.90
32506;DHT22;18955;51.224;8.482;2022-12-29T09:42:42;6.80;86.90
32506;DHT22;18955;51.224;8.482;2022-12-29T09:45:20;6.80;86.90
32506;DHT22;18955;51.224;8.482;2022-12-29T09:47:49;6.80;86.80
32506;DHT22;18955;51.224;8.482;2022-12-29T09:50:37;6.80;87.30
32506;DHT22;18955;51.224;8.482;2022-12-29T09:53:31;6.80;86.80
32506;DHT22;18955;51.224;8.482;2022-12-29T09:56:01;6.80;86.80
32506;DHT22;18955;51.224;8.482;2022-12-29T09:58:42;6.80;86.90
32506;DHT22;18955;51.224;8.482;2022-12-29T10:01:38;6.80;86.90
32506;DHT22;18955;51.224;8.482;2022-12-29T10:04:07;6.80;87.80
32506;DHT22;18955;51.224;8.482;2022-12-29T10:06:39;6.80;87.00
32506;DHT22;18955;51.224;8.482;2022-12-29T10:09:26;6.80;86.70
32506;DHT22;18955;51.224;8.482;2022-12-29T10:15:11;6.80;87.10
32506;DHT22;18955;51.224;8.482;2022-12-29T10:20:49;6.80;86.80
32506;DHT22;18955;51.224;8.482;2022-12-29T10:23:25;6.90;87.00
32506;DHT22;18955;51.224;8.482;2022-12-29T10:25:55;6.80;86.90
32506;DHT22;18955;51.224;8.482;2022-12-29T10:28:23;6.90;86.90
32506;DHT22;18955;51.224;8.482;2022-12-29T10:30:51;6.80;86.90
32506;DHT22;18955;51.224;8.482;2022-12-29T10:33:22;6.90;87.00
32506;DHT22;18955;51.224;8.482;2022-12-29T10:35:50;6.80;86.90
32506;DHT22;18955;51.224;8.482;2022-12-29T10:38:31;6.80;86.90
32506;DHT22;18955;51.224;8.482;2022-12-29T10:44:00;6.80;87.00
32506;DHT22;18955;51.224;8.482;2022-12-29T10:46:34;6.80;87.60
32506;DHT22;18955;51.224;8.482;2022-12-29T10:49:02;6.80;86.90
32506;DHT22;18955;51.224;8.482;2022-12-29T10:51:32;6.80;87.00
32506;DHT22;18955;51.224;8.482;2022-12-29T10:54:10;6.80;86.70
32506;DHT22;18955;51.224;8.482;2022-12-29T10:56:39;6.80;86.80
32506;DHT22;18955;51.224;8.482;2022-12-29T10:59:23;6.90;87.00
32506;DHT22;18955;51.224;8.482;2022-12-29T11:02:00;6.90;87.00
32506;DHT22;18955;51.224;8.482;2022-12-29T11:07:00;6.90;87.00
32506;DHT22;18955;51.224;8.482;2022-12-29T11:09:34;6.90;86.90
32506;DHT22;18955;51.224;8.482;2022-12-29T11:12:00;6.90;86.80
32506;DHT22;18955;51.224;8.482;2022-12-29T11:14:43;6.90;86.80
32506;DHT22;18955;51.224;8.482;2022-12-29T11:17:15;6.90;86.70
32506;DHT22;18955;51.224;8.482;2022-12-29T11:19:42;6.90;86.70
32506;DHT22;18955;51.224;8.482;2022-12-29T11:22:25;6.90;86.70
32506;DHT22;18955;51.224;8.482;2022-12-29T11:24:54;6.80;86.60
32506;DHT22;18955;51.224;8.482;2022-12-29T11:27:25;6.80;86.50
32506;DHT22;18955;51.224;8.482;2022-12-29T11:29:53;6.80;86.60
32506;DHT22;18955;51.224;8.482;2022-12-29T11:32:27;6.80;86.70
32506;DHT22;18955;51.224;8.482;2022-12-29T11:34:56;6.80;86.60
32506;DHT22;18955;51.224;8.482;2022-12-29T11:42:35;6.80;86.60
32506;DHT22;18955;51.224;8.482;2022-12-29T11:45:25;6.80;86.60
32506;DHT22;18955;51.224;8.482;2022-12-29T11:50:40;6.90;86.80
32506;DHT22;18955;51.224;8.482;2022-12-29T11:53:24;6.90;86.90
32506;DHT22;18955;51.224;8.482;2022-12-29T11:58:20;6.90;86.60
32506;DHT22;18955;51.224;8.482;2022-12-29T12:00:48;6.80;86.50
32506;DHT22;18955;51.224;8.482;2022-12-29T12:03:17;6.90;87.00
32506;DHT22;18955;51.224;8.482;2022-12-29T12:05:48;6.90;86.50
32506;DHT22;18955;51.224;8.482;2022-12-29T12:09:19;6.90;86.60
32506;DHT22;18955;51.224;8.482;2022-12-29T12:11:31;6.90;86.50
32506;DHT22;18955;51.224;8.482;2022-12-29T12:14:11;6.80;86.50
32506;DHT22;18955;51.224;8.482;2022-12-29T12:17:16;6.80;86.50
32506;DHT22;18955;51.224;8.482;2022-12-29T12:19:53;6.80;86.50
32506;DHT22;18955;51.224;8.482;2022-12-29T12:22:36;6.80;86.50
32506;DHT22;18955;51.224;8.482;2022-12-29T12:25:13;6.80;86.60
32506;DHT22;18955;51.224;8.482;2022-12-29T12:28:19;6.80;86.50
32506;DHT22;18955;51.224;8.482;2022-12-29T12:30:44;6.90;86.60
32506;DHT22;18955;51.224;8.482;2022-12-29T12:33:31;6.90;86.60
32506;DHT22;18955;51.224;8.482;2022-12-29T12:39:11;6.80;86.60
32506;DHT22;18955;51.224;8.482;2022-12-29T12:42:13;6.80;86.60
32506;DHT22;18955;51.224;8.482;2022-12-29T12:47:58;6.80;86.70
32506;DHT22;18955;51.224;8.482;2022-12-29T12:59:06;6.80;86.60
32506;DHT22;18955;51.224;8.482;2022-12-29T13:12:52;6.80;86.40
32506;DHT22;18955;51.224;8.482;2022-12-29T13:16:05;6.80;86.50
32506;DHT22;18955;51.224;8.482;2022-12-29T13:22:13;6.80;86.60
32506;DHT22;18955;51.224;8.482;2022-12-29T13:27:12;6.80;86.60
32506;DHT22;18955;51.224;8.482;2022-12-29T13:29:56;6.80;86.70
32506;DHT22;18955;51.224;8.482;2022-12-29T13:35:00;6.80;86.70
32506;DHT22;18955;51.224;8.482;2022-12-29T13:37:36;6.80;86.70
32506;DHT22;18955;51.224;8.482;2022-12-29T13:40:15;6.80;86.70
32506;DHT22;18955;51.224;8.482;2022-12-29T13:42:43;6.80;86.70
32506;DHT22;18955;51.224;8.482;2022-12-29T13:45:20;6.80;86.60
32506;DHT22;18955;51.224;8.482;2022-12-29T13:47:52;6.80;86.60
32506;DHT22;18955;51.224;8.482;2022-12-29T13:50:24;6.80;86.50
32506;DHT22;18955;51.224;8.482;2022-12-29T13:53:02;6.80;86.60
32506;DHT22;18955;51.224;8.482;2022-12-29T13:55:38;6.80;86.50
32506;DHT22;18955;51.224;8.482;2022-12-29T14:06:26;6.80;86.70
32506;DHT22;18955;51.224;8.482;2022-12-29T14:11:58;6.80;86.60
32506;DHT22;18955;51.224;8.482;2022-12-29T14:14:25;6.80;86.70
32506;DHT22;18955;51.224;8.482;2022-12-29T14:16:53;6.80;86.70
32506;DHT22;18955;51.224;8.482;2022-12-29T14:22:04;6.80;86.60
32506;DHT22;18955;51.224;8.482;2022-12-29T14:42:47;6.80;86.50
32506;DHT22;18955;51.224;8.482;2022-12-29T14:47:44;6.80;86.60
32506;DHT22;18955;51.224;8.482;2022-12-29T14:52:52;6.80;86.60
32506;DHT22;18955;51.224;8.482;2022-12-29T14:55:45;6.70;86.60
32506;DHT22;18955;51.224;8.482;2022-12-29T14:58:37;6.80;86.70
32506;DHT22;18955;51.224;8.482;2022-12-29T15:04:05;6.70;86.70
32506;DHT22;18955;51.224;8.482;2022-12-29T15:06:39;6.70;86.60
32506;DHT22;18955;51.224;8.482;2022-12-29T15:09:56;6.70;86.40
32506;DHT22;18955;51.224;8.482;2022-12-29T15:12:01;6.70;86.50
32506;DHT22;18955;51.224;8.482;2022-12-29T15:14:35;6.70;86.60
32506;DHT22;18955;51.224;8.482;2022-12-29T15:17:11;6.70;86.70
32506;DHT22;18955;51.224;8.482;2022-12-29T15:19:47;6.70;86.60
32506;DHT22;18955;51.224;8.482;2022-12-29T15:22:14;6.70;86.50
32506;DHT22;18955;51.224;8.482;2022-12-29T15:24:44;6.70;86.70
32506;DHT22;18955;51.224;8.482;2022-12-29T15:27:14;6.70;86.40
32506;DHT22;18955;51.224;8.482;2022-12-29T15:29:43;6.70;86.50
32506;DHT22;18955;51.224;8.482;2022-12-29T15:34:44;6.70;86.60
32506;DHT22;18955;51.224;8.482;2022-12-29T15:39:45;6.70;86.60
32506;DHT22;18955;51.224;8.482;2022-12-29T15:44:53;6.70;86.60
32506;DHT22;18955;51.224;8.482;2022-12-29T15:47:23;6.70;86.80
32506;DHT22;18955;51.224;8.482;2022-12-29T15:49:52;6.70;86.60
32506;DHT22;18955;51.224;8.482;2022-12-29T15:52:20;6.70;86.60
32506;DHT22;18955;51.224;8.482;2022-12-29T15:54:52;6.70;86.40
32506;DHT22;18955;51.224;8.482;2022-12-29T15:57:24;6.70;86.50
32506;DHT22;18955;51.224;8.482;2022-12-29T15:59:51;6.70;86.60
32506;DHT22;18955;51.224;8.482;2022-12-29T16:02:17;6.70;86.50
32506;DHT22;18955;51.224;8.482;2022-12-29T16:04:44;6.70;86.60
32506;DHT22;18955;51.224;8.482;2022-12-29T16:09:54;6.70;86.80
32506;DHT22;18955;51.224;8.482;2022-12-29T16:12:23;6.70;86.60
32506;DHT22;18955;51.224;8.482;2022-12-29T16:14:56;6.70;86.50
32506;DHT22;18955;51.224;8.482;2022-12-29T16:17:29;6.70;86.60
32506;DHT22;18955;51.224;8.482;2022-12-29T16:20:01;6.70;86.60
32506;DHT22;18955;51.224;8.482;2022-12-29T16:22:31;6.70;86.50
32506;DHT22;18955;51.224;8.482;2022-12-29T16:25:01;6.70;86.60
32506;DHT22;18955;51.224;8.482;2022-12-29T16:27:35;6.60;86.50
32506;DHT22;18955;51.224;8.482;2022-12-29T16:32:50;6.70;86.60
32506;DHT22;18955;51.224;8.482;2022-12-29T16:43:35;6.60;86.60
32506;DHT22;18955;51.224;8.482;2022-12-29T16:46:27;6.60;86.50
32506;DHT22;18955;51.224;8.482;2022-12-29T16:48:56;6.60;86.30
32506;DHT22;18955;51.224;8.482;2022-12-29T16:51:36;6.60;86.50
32506;DHT22;18955;51.224;8.482;2022-12-29T16:54:03;6.60;86.40
32506;DHT22;18955;51.224;8.482;2022-12-29T16:56:33;6.60;86.70
32506;DHT22;18955;51.224;8.482;2022-12-29T17:02:14;6.60;86.70
32506;DHT22;18955;51.224;8.482;2022-12-29T17:04:41;6.60;86.60
32506;DHT22;18955;51.224;8.482;2022-12-29T17:07:15;6.60;86.50
32506;DHT22;18955;51.224;8.482;2022-12-29T17:09:42;6.60;86.50
32506;DHT22;18955;51.224;8.482;2022-12-29T17:12:11;6.60;86.70
32506;DHT22;18955;51.224;8.482;2022-12-29T17:17:33;6.60;86.50
32506;DHT22;18955;51.224;8.482;2022-12-29T17:22:40;6.50;86.50
32506;DHT22;18955;51.224;8.482;2022-12-29T17:25:06;6.50;86.40
32506;DHT22;18955;51.224;8.482;2022-12-29T17:27:35;6.50;86.50
32506;DHT22;18955;51.224;8.482;2022-12-29T17:30:12;6.50;86.60
32506;DHT22;18955;51.224;8.482;2022-12-29T17:32:43;6.50;86.50
32506;DHT22;18955;51.224;8.482;2022-12-29T17:35:14;6.50;86.60
32506;DHT22;18955;51.224;8.482;2022-12-29T17:37:41;6.50;86.60
32506;DHT22;18955;51.224;8.482;2022-12-29T17:40:13;6.50;86.60
32506;DHT22;18955;51.224;8.482;2022-12-29T17:42:52;6.50;86.70
32506;DHT22;18955;51.224;8.482;2022-12-29T17:45:27;6.50;86.70
32506;DHT22;18955;51.224;8.482;2022-12-29T17:47:54;6.50;86.70
32506;DHT22;18955;51.224;8.482;2022-12-29T17:50:24;6.50;86.80
32506;DHT22;18955;51.224;8.482;2022-12-29T17:52:53;6.50;86.60
32506;DHT22;18955;51.224;8.482;2022-12-29T17:55:22;6.50;86.50
32506;DHT22;18955;51.224;8.482;2022-12-29T17:57:48;6.50;86.60
32506;DHT22;18955;51.224;8.482;2022-12-29T18:00:26;6.50;86.60
32506;DHT22;18955;51.224;8.482;2022-12-29T18:02:53;6.50;86.60
32506;DHT22;18955;51.224;8.482;2022-12-29T18:05:23;6.40;86.50
32506;DHT22;18955;51.224;8.482;2022-12-29T18:07:54;6.50;86.70
32506;DHT22;18955;51.224;8.482;2022-12-29T18:10:22;6.40;86.70
32506;DHT22;18955;51.224;8.482;2022-12-29T18:12:50;6.40;86.60
32506;DHT22;18955;51.224;8.482;2022-12-29T18:15:20;6.40;86.60
32506;DHT22;18955;51.224;8.482;2022-12-29T18:17:48;6.40;86.60
32506;DHT22;18955;51.224;8.482;2022-12-29T18:20:14;6.40;86.60
32506;DHT22;18955;51.224;8.482;2022-12-29T18:22:41;6.40;86.60
32506;DHT22;18955;51.224;8.482;2022-12-29T18:25:39;6.40;86.60
32506;DHT22;18955;51.224;8.482;2022-12-29T18:28:06;6.40;86.70
32506;DHT22;18955;51.224;8.482;2022-12-29T18:30:32;6.40;86.40
32506;DHT22;18955;51.224;8.482;2022-12-29T18:32:58;6.40;86.60
32506;DHT22;18955;51.224;8.482;2022-12-29T18:36:11;6.40;86.60
32506;DHT22;18955;51.224;8.482;2022-12-29T18:38:12;6.40;86.40
32506;DHT22;18955;51.224;8.482;2022-12-29T18:40:38;6.40;86.40
32506;DHT22;18955;51.224;8.482;2022-12-29T18:43:05;6.40;86.50
32506;DHT22;18955;51.224;8.482;2022-12-29T18:45:32;6.40;86.40
32506;DHT22;18955;51.224;8.482;2022-12-29T18:47:59;6.40;86.60
32506;DHT22;18955;51.224;8.482;2022-12-29T18:50:26;6.30;86.60
32506;DHT22;18955;51.224;8.482;2022-12-29T18:52:52;6.30;86.40
32506;DHT22;18955;51.224;8.482;2022-12-29T18:55:21;6.30;86.50
32506;DHT22;18955;51.224;8.482;2022-12-29T18:57:48;6.30;86.60
32506;DHT22;18955;51.224;8.482;2022-12-29T19:00:17;6.30;86.60
32506;DHT22;18955;51.224;8.482;2022-12-29T19:02:44;6.30;86.60